Time;durP1;ratioP1;P1;durP2;ratioP2;P2;SDS_P1;SDS_P2;PMS_P1;PMS_P2;Temp;Humidity;BMP_temperature;BMP_pressure;BME280_temperature;BME280_humidity;BME280_pressure;Samples;Min_cycle;Max_cycle;Signal;HPM_P1;HPM_P2
2023/01/06 00:01:08;;;;;;;8.67;4.63;;;;;;;11.47;70.32;101582.00;4904924;28;97042;-52
2023/01/06 00:03:34;;;;;;;12.03;4.70;;;;;;;11.49;70.27;101574.78;4902518;28;97144;-52
2023/01/06 00:06:01;;;;;;;9.53;4.80;;;;;;;11.50;70.28;101570.78;4887413;28;97135;-50
2023/01/06 00:08:26;;;;;;;5.40;4.43;;;;;;;11.51;70.31;101566.78;4906998;28;97000;-52
2023/01/06 00:10:53;;;;;;;7.03;4.37;;;;;;;11.55;70.21;101572.91;4898093;28;96896;-52
2023/01/06 00:13:18;;;;;;;15.40;5.70;;;;;;;11.56;70.26;101563.38;4905087;28;97389;-53
2023/01/06 00:15:44;;;;;;;8.80;5.40;;;;;;;11.57;70.24;101556.63;4906242;28;96981;-51
2023/01/06 00:18:09;;;;;;;17.80;6.40;;;;;;;11.58;70.39;101557.38;4903555;28;97259;-52
2023/01/06 00:20:34;;;;;;;17.17;5.80;;;;;;;11.58;70.28;101552.63;4903166;28;97110;-53
2023/01/06 00:23:00;;;;;;;10.67;5.10;;;;;;;11.58;70.43;101560.91;4905605;28;97181;-52
2023/01/06 00:25:25;;;;;;;5.03;4.53;;;;;;;11.60;70.24;101566.69;4906588;28;97597;-52
2023/01/06 00:27:51;;;;;;;21.07;6.00;;;;;;;11.60;70.48;101552.91;4906138;28;96940;-51
2023/01/06 00:30:16;;;;;;;16.47;6.40;;;;;;;11.64;70.28;101563.75;4908465;28;97806;-51
2023/01/06 00:32:41;;;;;;;9.30;4.97;;;;;;;11.66;70.30;101553.00;4904915;28;96996;-52
2023/01/06 00:35:07;;;;;;;12.10;6.30;;;;;;;11.67;70.35;101552.56;4907401;28;97824;-51
2023/01/06 00:37:32;;;;;;;13.60;6.50;;;;;;;11.68;70.35;101548.56;4907119;28;97618;-52
2023/01/06 00:39:58;;;;;;;31.53;7.63;;;;;;;11.70;70.39;101545.34;4907534;28;97368;-51
2023/01/06 00:42:23;;;;;;;11.80;6.20;;;;;;;11.70;70.24;101545.34;4904389;28;97471;-52
2023/01/06 00:44:49;;;;;;;8.70;6.20;;;;;;;11.72;70.24;101542.84;4907505;28;97124;-51
2023/01/06 00:47:15;;;;;;;16.17;6.57;;;;;;;11.73;70.45;101541.63;4907778;28;97263;-51
2023/01/06 00:49:41;;;;;;;10.63;5.73;;;;;;;11.76;70.40;101537.91;4906590;28;96933;-51
2023/01/06 00:52:06;;;;;;;15.77;6.87;;;;;;;11.77;70.22;101542.94;4906477;28;97887;-51
2023/01/06 00:54:31;;;;;;;17.73;6.23;;;;;;;11.78;70.22;101538.94;4906638;28;96913;-52
2023/01/06 00:56:57;;;;;;;15.40;7.00;;;;;;;11.79;70.26;101537.72;4907895;28;96979;-51
2023/01/06 00:59:24;;;;;;;13.27;6.23;;;;;;;11.82;70.38;101544.25;4906410;28;97473;-51
2023/01/06 01:01:54;;;;;;;12.40;6.60;;;;;;;11.80;70.47;101530.94;4907136;28;97379;-51
2023/01/06 01:04:21;;;;;;;15.00;6.53;;;;;;;11.82;70.51;101534.00;4904671;28;97169;-52
2023/01/06 01:06:47;;;;;;;16.73;6.30;;;;;;;11.83;70.33;101532.00;4905205;28;96986;-52
2023/01/06 01:09:16;;;;;;;13.53;6.50;;;;;;;11.82;70.52;101531.22;4908458;28;97162;-51
2023/01/06 01:14:26;;;;;;;17.43;5.67;;;;;;;11.83;70.58;101526.47;4906007;28;100161;-51
2023/01/06 01:16:51;;;;;;;13.77;6.50;;;;;;;11.84;70.61;101530.75;4904056;28;96847;-51
2023/01/06 01:19:17;;;;;;;8.93;5.87;;;;;;;11.84;70.90;101523.22;4908357;28;97130;-51
2023/01/06 01:21:43;;;;;;;19.70;5.50;;;;;;;11.86;70.83;101531.03;4905725;28;97218;-52
2023/01/06 01:24:08;;;;;;;15.10;5.40;;;;;;;11.89;70.77;101522.56;4904010;28;97352;-52
2023/01/06 01:26:34;;;;;;;10.47;4.80;;;;;;;11.88;70.72;101520.28;4905328;28;97303;-52
2023/01/06 01:29:00;;;;;;;13.97;5.43;;;;;;;11.85;70.86;101522.00;4907134;28;96912;-50
2023/01/06 01:31:26;;;;;;;14.77;5.50;;;;;;;11.85;70.98;101522.00;4897802;28;100440;-51
2023/01/06 01:33:51;;;;;;;14.03;6.17;;;;;;;11.87;71.07;101522.28;4903989;28;97019;-52
2023/01/06 01:36:17;;;;;;;11.20;5.40;;;;;;;11.88;70.96;101526.53;4907515;28;97428;-51
2023/01/06 01:38:43;;;;;;;11.27;5.43;;;;;;;11.90;71.16;101515.78;4918855;28;100532;-51
2023/01/06 01:41:14;;;;;;;9.20;5.50;;;;;;;11.90;71.00;101515.78;4905492;28;96976;-51
2023/01/06 01:43:53;;;;;;;12.53;5.10;;;;;;;11.90;71.11;101504.75;4906116;28;100197;-51
2023/01/06 01:46:27;;;;;;;10.33;5.40;;;;;;;11.94;71.01;101501.81;4905753;28;97141;-51
2023/01/06 01:48:55;;;;;;;8.00;4.63;;;;;;;11.95;71.11;101504.09;4906852;28;97403;-52
2023/01/06 01:51:27;;;;;;;10.30;6.10;;;;;;;11.98;71.19;101500.38;4905375;28;96895;-51
2023/01/06 01:53:56;;;;;;;10.73;5.30;;;;;;;11.98;70.94;101505.13;4904603;28;97344;-53
2023/01/06 01:56:25;;;;;;;10.10;4.77;;;;;;;12.01;71.22;101506.94;4905595;28;97270;-51
2023/01/06 01:58:57;;;;;;;11.27;5.30;;;;;;;12.02;71.15;101500.94;4902467;28;96976;-51
2023/01/06 02:01:22;;;;;;;10.53;4.73;;;;;;;12.02;71.01;101500.16;4905891;28;101796;-51
2023/01/06 02:03:48;;;;;;;10.27;4.80;;;;;;;12.01;71.12;101499.41;4905713;28;96797;-51
2023/01/06 02:06:20;;;;;;;11.90;4.73;;;;;;;12.04;71.22;101498.44;4906560;28;96901;-51
2023/01/06 02:08:57;;;;;;;11.87;4.90;;;;;;;12.04;71.14;101490.19;4905655;28;97247;-51
2023/01/06 02:11:26;;;;;;;11.00;5.07;;;;;;;12.04;71.24;101495.69;4903699;28;97429;-52
2023/01/06 02:14:02;;;;;;;14.30;5.10;;;;;;;12.07;71.15;101493.22;4902915;28;97146;-52
2023/01/06 02:16:46;;;;;;;12.50;5.27;;;;;;;12.10;71.07;101490.22;4904353;28;96994;-51
2023/01/06 02:19:30;;;;;;;7.07;4.83;;;;;;;12.10;71.07;101483.97;4905632;28;96769;-51
2023/01/06 02:22:24;;;;;;;13.13;4.70;;;;;;;12.11;71.15;101479.97;4902982;28;100475;-51
2023/01/06 02:25:13;;;;;;;12.10;5.13;;;;;;;12.10;70.99;101472.94;4900156;28;101677;-54
2023/01/06 02:28:16;;;;;;;6.47;4.20;;;;;;;12.07;71.17;101473.91;4903329;28;97319;-52
2023/01/06 02:31:08;;;;;;;7.50;4.60;;;;;;;12.06;70.95;101475.91;4904285;28;96785;-51
2023/01/06 02:33:44;;;;;;;11.90;4.13;;;;;;;12.06;70.97;101467.63;4904851;28;100512;-52
2023/01/06 02:36:24;;;;;;;7.63;4.20;;;;;;;12.07;70.95;101458.13;4904777;28;97116;-51
2023/01/06 02:39:36;;;;;;;7.80;3.90;;;;;;;12.06;71.37;101462.09;4902816;28;97365;-51
2023/01/06 02:42:34;;;;;;;11.37;3.90;;;;;;;12.09;71.29;101452.13;4886056;28;97226;-51
2023/01/06 02:45:21;;;;;;;6.83;4.00;;;;;;;12.10;71.10;101450.88;4883923;28;101966;-52
2023/01/06 02:47:58;;;;;;;13.53;4.40;;;;;;;12.11;71.00;101444.09;4903929;28;100129;-52
2023/01/06 02:50:33;;;;;;;7.83;4.70;;;;;;;12.14;71.21;101438.41;4902897;28;96919;-51
2023/01/06 02:53:07;;;;;;;7.37;5.00;;;;;;;12.13;71.12;101444.38;4901765;28;96785;-51
2023/01/06 02:55:43;;;;;;;8.93;4.37;;;;;;;12.14;71.15;101438.41;4901811;28;97351;-52
2023/01/06 02:58:23;;;;;;;11.50;4.67;;;;;;;12.15;71.10;101430.88;4906333;28;97698;-52
2023/01/06 03:00:56;;;;;;;5.60;4.00;;;;;;;12.13;71.08;101428.59;4908863;28;96868;-51
2023/01/06 03:03:25;;;;;;;10.10;4.47;;;;;;;12.16;71.38;101424.13;4907032;28;97154;-51
2023/01/06 03:05:56;;;;;;;8.43;4.90;;;;;;;12.15;71.20;101426.09;4923281;28;104633;-51
2023/01/06 03:08:26;;;;;;;7.20;3.73;;;;;;;12.16;71.26;101413.84;4909575;28;100048;-52
2023/01/06 03:10:54;;;;;;;6.87;3.73;;;;;;;12.15;71.38;101420.59;4908304;28;97182;-52
2023/01/06 03:13:26;;;;;;;5.23;3.70;;;;;;;12.17;71.22;101417.34;4907989;28;97106;-52
2023/01/06 03:15:52;;;;;;;7.50;3.90;;;;;;;12.17;71.24;101417.34;4896075;28;99810;-51
2023/01/06 03:18:18;;;;;;;11.37;4.50;;;;;;;12.20;71.23;101416.38;4908667;28;97262;-51
2023/01/06 03:20:45;;;;;;;5.73;3.83;;;;;;;12.18;71.37;101411.34;4906511;28;96884;-51
2023/01/06 03:23:12;;;;;;;5.20;3.47;;;;;;;12.21;71.19;101409.63;4906199;28;98065;-51
2023/01/06 03:25:37;;;;;;;6.37;4.00;;;;;;;12.22;71.51;101406.38;4907769;28;97805;-51
2023/01/06 03:28:03;;;;;;;7.77;4.00;;;;;;;12.23;71.23;101405.13;4907141;28;97032;-52
2023/01/06 03:30:41;;;;;;;7.97;4.03;;;;;;;12.25;71.38;101412.94;4907027;28;96792;-52
2023/01/06 03:33:22;;;;;;;3.67;3.37;;;;;;;12.24;71.36;101405.91;4906421;28;97321;-52
2023/01/06 03:36:00;;;;;;;5.70;3.60;;;;;;;12.25;71.59;101408.19;4907338;28;101639;-51
2023/01/06 03:39:06;;;;;;;5.33;4.10;;;;;;;12.28;71.45;101412.72;4907028;28;100245;-52
2023/01/06 03:45:16;;;;;;;4.50;3.20;;;;;;;12.29;71.69;101402.44;4905328;28;97153;-51
2023/01/06 03:47:58;;;;;;;3.10;2.50;;;;;;;12.31;71.66;101395.19;4907004;28;100538;-52
2023/01/06 03:50:49;;;;;;;4.50;2.97;;;;;;;12.33;71.63;101383.66;4905161;28;97737;-52
2023/01/06 03:53:23;;;;;;;4.30;3.13;;;;;;;12.37;71.36;101393.25;4907164;28;97103;-52
2023/01/06 03:55:56;;;;;;;4.13;3.20;;;;;;;12.36;71.43;101390.97;4906879;28;97014;-51
2023/01/06 03:58:25;;;;;;;4.10;3.73;;;;;;;12.36;71.38;101377.19;4906955;28;99592;-51
2023/01/06 04:00:51;;;;;;;3.23;2.90;;;;;;;12.38;71.33;101375.47;4903725;28;97247;-51
2023/01/06 04:03:16;;;;;;;4.50;3.00;;;;;;;12.41;71.38;101376.47;4906482;28;96795;-52
2023/01/06 04:05:42;;;;;;;4.00;3.40;;;;;;;12.42;71.56;101372.47;4906444;28;96859;-51
2023/01/06 04:08:07;;;;;;;3.67;3.07;;;;;;;12.43;71.38;101371.22;4905609;28;97251;-51
2023/01/06 04:10:33;;;;;;;3.37;3.07;;;;;;;12.45;71.43;101363.22;4919289;28;97477;-52
2023/01/06 04:12:58;;;;;;;3.17;2.97;;;;;;;12.47;71.42;101366.25;4907163;28;96975;-51
2023/01/06 04:15:28;;;;;;;4.00;3.63;;;;;;;12.47;71.52;101367.00;4900395;28;97327;-51
2023/01/06 04:17:53;;;;;;;6.50;3.80;;;;;;;12.47;71.49;101364.22;4906334;28;101981;-52
2023/01/06 04:20:22;;;;;;;5.10;4.10;;;;;;;12.48;71.46;101368.53;4906989;28;96889;-53
2023/01/06 04:22:47;;;;;;;3.60;3.30;;;;;;;12.49;71.45;101361.75;4904667;28;97407;-51
2023/01/06 04:25:13;;;;;;;3.90;3.50;;;;;;;12.49;71.38;101361.00;4906822;28;96903;-52
2023/01/06 04:27:38;;;;;;;3.20;3.00;;;;;;;12.51;71.43;101364.03;4906571;28;96788;-52
2023/01/06 04:30:05;;;;;;;3.90;3.50;;;;;;;12.52;71.32;101357.25;4906000;28;97491;-52
2023/01/06 04:32:31;;;;;;;3.90;2.80;;;;;;;12.52;71.29;101354.50;4904008;28;96964;-51
2023/01/06 04:34:57;;;;;;;3.63;3.33;;;;;;;12.51;71.21;101355.75;4905145;28;97124;-51
2023/01/06 04:37:22;;;;;;;6.67;4.00;;;;;;;12.52;71.38;101351.72;4918088;28;98586;-52
2023/01/06 04:39:48;;;;;;;4.03;3.27;;;;;;;12.51;71.44;101347.47;4905643;28;96926;-52
2023/01/06 04:42:14;;;;;;;5.03;2.90;;;;;;;12.51;71.58;101339.97;4865021;28;1215587;-52
2023/01/06 04:44:41;;;;;;;6.77;3.70;;;;;;;12.47;71.61;101342.16;4906368;28;96900;-52
2023/01/06 04:47:06;;;;;;;6.57;4.30;;;;;;;12.49;71.48;101331.38;4906249;28;97289;-52
2023/01/06 04:49:31;;;;;;;4.50;3.60;;;;;;;12.51;71.55;101333.69;4907329;28;96938;-52
2023/01/06 04:51:57;;;;;;;12.47;3.17;;;;;;;12.50;71.42;101330.16;4906740;28;96852;-55
2023/01/06 04:54:22;;;;;;;5.53;3.70;;;;;;;12.51;71.66;101330.91;4907503;28;97264;-52
2023/01/06 04:56:48;;;;;;;4.60;3.60;;;;;;;12.49;71.65;101325.13;4906432;28;99147;-52
2023/01/06 04:59:13;;;;;;;5.60;3.70;;;;;;;12.49;71.65;101331.38;4907659;28;97062;-51
2023/01/06 05:01:38;;;;;;;4.07;3.40;;;;;;;12.51;71.51;101320.63;4906088;28;97225;-52
2023/01/06 05:04:06;;;;;;;4.90;4.10;;;;;;;12.54;71.66;101322.41;4907439;28;97063;-52
2023/01/06 05:06:31;;;;;;;4.90;4.40;;;;;;;12.55;71.66;101309.38;4906505;28;97430;-52
2023/01/06 05:08:57;;;;;;;11.37;4.33;;;;;;;12.55;71.47;101314.88;4906317;28;97263;-52
2023/01/06 05:11:23;;;;;;;4.23;3.47;;;;;;;12.55;71.61;101306.59;4906073;28;97233;-52
2023/01/06 05:13:49;;;;;;;4.70;4.30;;;;;;;12.52;71.55;101299.28;4906395;28;97226;-52
2023/01/06 05:16:19;;;;;;;6.60;4.00;;;;;;;12.57;71.58;101293.06;4906548;28;97838;-51
2023/01/06 05:18:45;;;;;;;6.20;4.90;;;;;;;12.56;71.83;101284.03;4905391;28;100456;-52
2023/01/06 05:21:11;;;;;;;9.27;5.90;;;;;;;12.58;71.62;101294.59;4905848;28;97050;-51
2023/01/06 05:23:37;;;;;;;5.23;4.70;;;;;;;12.55;71.85;101296.31;4906848;28;97197;-51
2023/01/06 05:26:03;;;;;;;5.97;4.87;;;;;;;12.57;71.82;101304.88;4904960;28;97129;-51
2023/01/06 05:28:29;;;;;;;6.40;5.40;;;;;;;12.59;71.97;101298.84;4905971;28;97487;-58
2023/01/06 05:30:59;;;;;;;6.83;5.13;;;;;;;12.61;71.94;101291.59;4906034;28;96856;-52
2023/01/06 05:33:24;;;;;;;5.87;5.27;;;;;;;12.62;71.96;101292.34;4905397;28;96945;-51
2023/01/06 05:35:56;;;;;;;6.73;5.37;;;;;;;12.64;71.83;101292.63;4905792;28;97496;-52
2023/01/06 05:38:22;;;;;;;8.67;5.90;;;;;;;12.64;71.93;101289.88;4906082;28;97539;-52
2023/01/06 05:40:50;;;;;;;5.90;5.17;;;;;;;12.58;72.03;101302.88;4904036;28;97272;-51
2023/01/06 05:43:15;;;;;;;6.27;5.70;;;;;;;12.61;72.33;101293.59;4906047;28;97108;-51
2023/01/06 05:45:41;;;;;;;6.00;5.00;;;;;;;12.64;72.15;101287.88;4905983;28;96759;-51
2023/01/06 05:48:06;;;;;;;6.93;5.07;;;;;;;12.66;71.98;101284.59;4906576;28;97138;-52
2023/01/06 05:50:31;;;;;;;8.03;5.27;;;;;;;12.65;72.16;101288.59;4906974;28;97222;-52
2023/01/06 05:52:57;;;;;;;5.77;5.23;;;;;;;12.66;72.09;101295.66;4906157;28;96813;-52
2023/01/06 05:55:22;;;;;;;6.03;5.50;;;;;;;12.69;71.96;101300.16;4905843;28;97244;-52
2023/01/06 05:57:47;;;;;;;8.43;5.70;;;;;;;12.68;72.07;101293.16;4905296;28;101560;-51
2023/01/06 06:00:14;;;;;;;5.57;5.07;;;;;;;12.68;72.03;101290.41;4905896;28;97442;-52
2023/01/06 06:02:39;;;;;;;7.70;5.00;;;;;;;12.72;72.21;101283.41;4906187;28;97299;-51
2023/01/06 06:05:05;;;;;;;5.33;4.37;;;;;;;12.75;72.09;101289.94;4906254;28;96976;-52
2023/01/06 06:07:30;;;;;;;8.57;5.00;;;;;;;12.75;71.83;101290.69;4906976;28;97777;-52
2023/01/06 06:09:55;;;;;;;7.70;4.77;;;;;;;12.73;71.93;101289.69;4905985;28;97349;-52
2023/01/06 06:12:21;;;;;;;6.27;4.87;;;;;;;12.75;72.00;101279.63;4904632;28;97121;-51
2023/01/06 06:14:46;;;;;;;4.77;4.27;;;;;;;12.75;71.93;101278.91;4902185;28;97372;-52
2023/01/06 06:17:11;;;;;;;7.00;4.07;;;;;;;12.73;72.13;101287.66;4906036;28;97258;-52
2023/01/06 06:19:37;;;;;;;4.33;3.87;;;;;;;12.72;72.00;101263.31;4906797;28;97231;-51
2023/01/06 06:22:02;;;;;;;6.70;3.70;;;;;;;12.77;72.23;101279.94;4905038;28;97209;-52
2023/01/06 06:24:27;;;;;;;3.63;3.17;;;;;;;12.77;71.99;101287.44;4904507;28;97320;-51
2023/01/06 06:26:53;;;;;;;4.80;3.60;;;;;;;12.77;72.04;101265.34;4906413;28;96667;-52
2023/01/06 06:29:18;;;;;;;4.87;3.50;;;;;;;12.79;72.23;101262.84;4906503;28;97613;-51
2023/01/06 06:31:44;;;;;;;3.43;3.23;;;;;;;12.77;72.00;101259.84;4904028;28;97478;-51
2023/01/06 06:34:12;;;;;;;3.77;3.10;;;;;;;12.80;72.03;101273.41;4905215;28;97820;-52
2023/01/06 06:36:37;;;;;;;3.90;3.50;;;;;;;12.84;72.01;101281.47;4905331;28;96865;-52
2023/01/06 06:39:03;;;;;;;2.57;2.43;;;;;;;12.86;71.82;101269.94;4905184;28;97286;-51
2023/01/06 06:41:28;;;;;;;3.40;3.10;;;;;;;12.86;71.88;101262.41;4906298;28;97028;-51
2023/01/06 06:43:53;;;;;;;2.70;2.50;;;;;;;12.86;71.85;101245.84;4903985;28;97001;-51
2023/01/06 06:46:19;;;;;;;2.50;2.27;;;;;;;12.87;71.79;101252.84;4904696;28;97710;-52
2023/01/06 06:48:45;;;;;;;6.87;3.30;;;;;;;12.86;71.62;101254.13;4903268;28;96941;-51
2023/01/06 06:51:13;;;;;;;4.50;2.80;;;;;;;12.85;71.85;101252.59;4906847;28;96982;-51
2023/01/06 06:53:39;;;;;;;3.53;2.50;;;;;;;12.80;71.80;101247.78;4905313;28;100624;-52
2023/01/06 06:56:06;;;;;;;3.03;2.23;;;;;;;12.79;71.74;101249.81;4904394;28;97954;-51
2023/01/06 06:58:32;;;;;;;1.73;1.63;;;;;;;12.80;71.95;101250.56;4904113;28;97212;-51
2023/01/06 07:00:57;;;;;;;1.57;1.47;;;;;;;12.83;71.72;101249.56;4904878;28;97078;-52
2023/01/06 07:03:24;;;;;;;1.70;1.60;;;;;;;12.87;71.63;101241.06;4905154;28;97687;-52
2023/01/06 07:05:51;;;;;;;1.80;1.37;;;;;;;12.86;71.44;101236.78;4906033;28;97090;-51
2023/01/06 07:08:17;;;;;;;2.83;1.60;;;;;;;12.87;71.63;101228.00;4905485;28;96717;-51
2023/01/06 07:10:42;;;;;;;3.73;1.23;;;;;;;12.91;71.39;101234.03;4906158;28;97423;-52
2023/01/06 07:13:07;;;;;;;2.03;1.00;;;;;;;12.91;71.50;101228.53;4904973;28;97408;-51
2023/01/06 07:15:33;;;;;;;1.23;0.90;;;;;;;12.91;71.24;101231.28;4905916;28;97579;-52
2023/01/06 07:18:03;;;;;;;8.77;1.60;;;;;;;12.89;71.05;101233.78;4904854;28;97081;-52
2023/01/06 07:20:30;;;;;;;1.93;1.30;;;;;;;12.91;71.27;101227.78;4904926;28;96556;-52
2023/01/06 07:22:56;;;;;;;2.10;0.80;;;;;;;12.91;71.35;101230.56;4902622;28;97222;-51
2023/01/06 07:25:21;;;;;;;1.43;0.97;;;;;;;12.94;71.13;101226.78;4905427;28;96866;-51
2023/01/06 07:27:52;;;;;;;3.37;0.70;;;;;;;12.90;70.90;101229.78;4905660;28;96641;-52
2023/01/06 07:30:17;;;;;;;1.10;1.03;;;;;;;12.89;71.13;101230.28;4904115;28;97163;-53
2023/01/06 07:32:43;;;;;;;1.00;0.60;;;;;;;12.86;71.04;101215.47;4905320;28;97283;-52
2023/01/06 07:35:09;;;;;;;1.83;0.90;;;;;;;12.86;71.03;101218.22;4905381;28;97197;-52
2023/01/06 07:37:34;;;;;;;1.03;0.63;;;;;;;12.85;70.91;101216.69;4904614;28;97046;-53
2023/01/06 07:39:59;;;;;;;1.27;0.77;;;;;;;12.83;71.17;101210.91;4904594;28;97190;-51
2023/01/06 07:42:25;;;;;;;0.60;0.60;;;;;;;12.87;70.87;101221.72;4905541;28;97112;-51
2023/01/06 07:44:50;;;;;;;2.93;0.53;;;;;;;12.87;70.88;101214.19;4906605;28;101153;-52
2023/01/06 07:47:15;;;;;;;0.73;0.70;;;;;;;12.90;70.66;101215.22;4907988;28;98082;-52
2023/01/06 07:49:41;;;;;;;0.67;0.67;;;;;;;12.90;70.79;101207.69;4907459;28;96890;-53
2023/01/06 07:52:06;;;;;;;2.83;0.90;;;;;;;12.90;70.68;101210.47;4907657;28;97121;-52
2023/01/06 07:54:31;;;;;;;1.37;0.50;;;;;;;12.96;70.78;101219.53;4908821;28;96733;-51
2023/01/06 07:56:57;;;;;;;0.80;0.40;;;;;;;12.95;70.56;101218.03;4906555;28;96817;-52
2023/01/06 07:59:22;;;;;;;0.70;0.60;;;;;;;12.94;70.55;101208.22;4908982;28;97462;-52
2023/01/06 08:01:47;;;;;;;1.27;0.60;;;;;;;12.96;70.45;101210.47;4908043;28;97256;-51
2023/01/06 08:04:13;;;;;;;2.70;0.90;;;;;;;12.98;70.50;101211.50;4908813;28;97156;-52
2023/01/06 08:06:39;;;;;;;2.37;0.90;;;;;;;12.98;70.34;101202.44;4907042;28;97249;-51
2023/01/06 08:09:05;;;;;;;2.07;0.87;;;;;;;12.97;70.28;101203.72;4908205;28;96797;-52
2023/01/06 08:11:30;;;;;;;0.97;0.70;;;;;;;13.00;70.07;101199.94;4907916;28;97795;-51
2023/01/06 08:13:55;;;;;;;1.47;0.57;;;;;;;12.99;70.03;101206.72;4905633;28;97019;-51
2023/01/06 08:16:21;;;;;;;2.40;0.70;;;;;;;12.98;70.02;101203.22;4907523;28;96882;-52
2023/01/06 08:18:46;;;;;;;2.30;0.53;;;;;;;12.99;70.01;101199.22;4908575;28;96830;-50
2023/01/06 08:21:11;;;;;;;0.80;0.80;;;;;;;13.03;69.86;101193.44;4907727;28;97176;-52
2023/01/06 08:23:37;;;;;;;2.50;0.70;;;;;;;13.03;69.97;101205.25;4903741;28;98961;-51
2023/01/06 08:26:16;;;;;;;1.17;0.70;;;;;;;13.05;69.45;101199.25;4921410;28;101222;-52
2023/01/06 08:28:43;;;;;;;1.13;0.70;;;;;;;13.07;69.93;101197.50;4907401;28;96731;-51
2023/01/06 08:31:11;;;;;;;1.23;0.70;;;;;;;13.12;69.76;101216.13;4907371;28;97870;-52
2023/01/06 08:33:36;;;;;;;1.77;0.80;;;;;;;13.14;69.77;101213.63;4908036;28;96726;-52
2023/01/06 08:36:04;;;;;;;0.80;0.80;;;;;;;13.21;69.60;101204.09;4907654;28;96772;-53
2023/01/06 08:38:30;;;;;;;1.20;0.97;;;;;;;13.23;69.28;101213.41;4906740;28;96778;-52
2023/01/06 08:40:58;;;;;;;1.00;0.67;;;;;;;13.23;69.39;101207.88;4907629;28;96781;-52
2023/01/06 08:43:24;;;;;;;1.83;1.43;;;;;;;13.22;69.30;101217.41;4905326;28;97247;-52
2023/01/06 08:45:50;;;;;;;0.90;0.60;;;;;;;13.25;69.49;101202.59;4908233;28;97072;-52
2023/01/06 08:48:16;;;;;;;2.80;0.80;;;;;;;13.29;69.33;101202.34;4907712;28;97908;-52
2023/01/06 08:50:42;;;;;;;1.63;0.53;;;;;;;13.28;69.30;101207.13;4906503;28;96919;-52
2023/01/06 08:53:08;;;;;;;1.20;0.70;;;;;;;13.30;69.19;101207.38;4906711;28;97812;-52
2023/01/06 08:55:38;;;;;;;1.47;0.90;;;;;;;13.31;68.85;101203.38;4907181;28;96925;-52
2023/01/06 08:58:04;;;;;;;0.63;0.63;;;;;;;13.31;69.08;101197.84;4905809;28;96940;-52
2023/01/06 09:00:29;;;;;;;1.70;0.90;;;;;;;13.30;68.74;101195.59;4906565;28;97085;-52
2023/01/06 09:02:55;;;;;;;0.90;0.80;;;;;;;13.31;69.27;101202.63;4905152;28;97034;-52
2023/01/06 09:05:20;;;;;;;1.90;0.67;;;;;;;13.35;69.04;101203.13;4904827;28;97481;-51
2023/01/06 09:07:45;;;;;;;1.30;1.20;;;;;;;13.35;69.03;101203.13;4907200;28;97198;-52
2023/01/06 09:10:11;;;;;;;0.97;0.97;;;;;;;13.33;68.94;101209.16;4906738;28;97583;-52
2023/01/06 09:12:37;;;;;;;1.57;0.67;;;;;;;13.35;69.13;101203.13;4906543;28;97668;-52
2023/01/06 09:15:03;;;;;;;1.73;1.00;;;;;;;13.33;69.00;101211.91;4906469;28;96978;-52
2023/01/06 09:17:29;;;;;;;2.63;1.00;;;;;;;13.28;69.14;101212.66;4907021;28;96955;-53
2023/01/06 09:19:54;;;;;;;1.53;0.80;;;;;;;13.25;69.35;101216.41;4906029;28;97343;-52
2023/01/06 09:22:19;;;;;;;1.07;0.97;;;;;;;13.24;69.17;101214.91;4906134;28;97103;-52
2023/01/06 09:24:45;;;;;;;1.20;1.10;;;;;;;13.17;69.36;101209.84;4905848;28;96841;-53
2023/01/06 09:27:10;;;;;;;4.20;1.13;;;;;;;13.16;69.46;101207.59;4906527;28;97456;-52
2023/01/06 09:29:35;;;;;;;1.47;1.03;;;;;;;13.15;69.74;101214.38;4896983;28;98039;-53
2023/01/06 09:32:02;;;;;;;2.33;1.00;;;;;;;13.17;69.92;101212.59;4902953;28;97129;-52
2023/01/06 09:34:27;;;;;;;1.07;0.97;;;;;;;13.20;69.65;101214.38;4902383;28;97418;-53
2023/01/06 09:36:53;;;;;;;1.33;1.00;;;;;;;13.18;69.70;101216.91;4902077;28;97158;-56
2023/01/06 09:39:18;;;;;;;1.73;0.80;;;;;;;13.19;69.67;101218.38;4902502;28;96703;-51
2023/01/06 09:42:08;;;;;;;1.27;1.17;;;;;;;13.20;69.62;101222.69;4899316;28;96780;-52
2023/01/06 09:45:01;;;;;;;0.77;0.77;;;;;;;13.19;69.45;101217.66;4883878;28;97245;-53
2023/01/06 09:47:38;;;;;;;1.37;0.97;;;;;;;13.18;69.45;101216.91;4869458;28;96880;-52
2023/01/06 09:50:36;;;;;;;1.03;0.93;;;;;;;13.17;69.43;101211.88;4889581;28;97045;-53
2023/01/06 09:53:18;;;;;;;3.10;1.13;;;;;;;13.16;69.83;101224.16;4903071;28;100214;-53
2023/01/06 09:55:51;;;;;;;1.50;0.87;;;;;;;13.18;69.79;101222.41;4901620;28;96869;-53
2023/01/06 09:58:23;;;;;;;0.80;0.70;;;;;;;13.16;69.80;101213.88;4891863;28;96762;-52
2023/01/06 10:00:51;;;;;;;1.40;0.97;;;;;;;13.18;69.98;101210.59;4881130;28;101910;-52
2023/01/06 10:03:22;;;;;;;3.17;1.07;;;;;;;13.22;70.22;101214.66;4901535;28;97107;-53
2023/01/06 10:06:03;;;;;;;0.83;0.83;;;;;;;13.24;70.07;101219.66;4902542;28;97250;-52
2023/01/06 10:08:43;;;;;;;0.93;0.93;;;;;;;13.23;70.01;101218.94;4903731;28;97103;-52
2023/01/06 10:11:32;;;;;;;1.00;0.80;;;;;;;13.24;70.03;101225.19;4904005;28;101966;-53
2023/01/06 10:14:21;;;;;;;1.10;0.77;;;;;;;13.24;70.07;101234.25;4895448;28;100278;-51
2023/01/06 10:17:28;;;;;;;0.80;0.80;;;;;;;13.25;70.03;101218.44;4881305;28;96894;-52
2023/01/06 10:20:37;;;;;;;1.30;0.80;;;;;;;13.24;70.01;101220.44;4878829;28;97253;-52
2023/01/06 10:23:18;;;;;;;0.80;0.80;;;;;;;13.22;70.21;101222.16;4900421;28;101395;-51
2023/01/06 10:25:53;;;;;;;1.37;1.27;;;;;;;13.20;70.08;101213.63;4903864;28;101551;-53
2023/01/06 10:28:34;;;;;;;1.67;0.80;;;;;;;13.16;70.07;101213.88;4902335;28;96835;-52
2023/01/06 10:31:08;;;;;;;1.47;1.00;;;;;;;13.17;70.31;101206.34;4900080;28;97094;-52
2023/01/06 10:33:39;;;;;;;0.93;0.93;;;;;;;13.17;70.44;101220.16;4917171;28;98714;-52
2023/01/06 10:36:11;;;;;;;1.37;1.20;;;;;;;13.20;70.39;101216.38;4904070;28;96996;-51
2023/01/06 10:38:40;;;;;;;3.37;1.47;;;;;;;13.22;70.29;101216.66;4902421;28;96741;-52
2023/01/06 10:41:52;;;;;;;1.37;1.00;;;;;;;13.25;70.23;101221.19;4902352;28;97685;-52
2023/01/06 10:44:18;;;;;;;1.33;1.33;;;;;;;13.36;70.39;101232.28;4866057;28;100518;-51
2023/01/06 10:46:46;;;;;;;1.30;1.20;;;;;;;13.41;70.24;101223.25;4884641;28;97134;-52
2023/01/06 10:49:16;;;;;;;1.43;1.17;;;;;;;13.42;70.04;101239.34;4901805;28;97218;-52
2023/01/06 10:51:44;;;;;;;1.50;1.30;;;;;;;13.42;70.15;101238.59;4901858;28;97338;-50
2023/01/06 10:54:13;;;;;;;1.20;1.13;;;;;;;13.45;70.13;101235.56;4900883;28;97327;-51
2023/01/06 10:56:44;;;;;;;1.33;1.03;;;;;;;13.53;70.25;101231.09;4903569;28;97193;-52
2023/01/06 10:59:11;;;;;;;2.10;1.50;;;;;;;13.60;70.10;101231.84;4899173;28;97067;-51
2023/01/06 11:01:54;;;;;;;1.80;1.70;;;;;;;13.57;69.67;101233.59;4902027;28;97021;-51
2023/01/06 11:04:20;;;;;;;1.97;1.50;;;;;;;13.54;70.02;101229.09;4901435;28;97665;-53
2023/01/06 11:06:52;;;;;;;1.30;1.30;;;;;;;13.53;69.94;101236.63;4910700;28;97574;-51
2023/01/06 11:09:43;;;;;;;1.43;1.17;;;;;;;13.56;70.00;101231.34;4901949;28;96691;-52
2023/01/06 11:12:14;;;;;;;1.20;1.20;;;;;;;13.61;70.17;101234.09;4901358;28;97056;-52
2023/01/06 11:14:40;;;;;;;1.50;1.40;;;;;;;13.62;70.12;101227.34;4901562;28;96998;-52
2023/01/06 11:17:12;;;;;;;1.20;1.20;;;;;;;13.66;70.17;101229.84;4902712;28;97227;-52
2023/01/06 11:19:43;;;;;;;1.10;1.10;;;;;;;13.68;70.19;101230.09;4901819;28;97182;-52
2023/01/06 11:22:28;;;;;;;1.13;1.00;;;;;;;13.66;70.07;101238.13;4901218;28;97169;-52
2023/01/06 11:24:54;;;;;;;1.27;1.17;;;;;;;13.65;70.15;101242.19;4902168;28;101852;-52
2023/01/06 11:27:19;;;;;;;1.43;1.33;;;;;;;13.66;70.27;101236.13;4904297;28;97439;-52
2023/01/06 11:29:44;;;;;;;1.30;1.27;;;;;;;13.70;70.07;101233.13;4905749;28;97378;-51
2023/01/06 11:32:23;;;;;;;1.93;1.50;;;;;;;13.72;70.01;101236.13;4903681;28;97067;-51
2023/01/06 11:34:58;;;;;;;1.40;1.40;;;;;;;13.72;70.06;101236.91;4905078;28;97310;-51
2023/01/06 11:37:41;;;;;;;1.23;1.23;;;;;;;13.76;69.81;101225.63;4902247;28;97420;-52
2023/01/06 11:40:23;;;;;;;1.30;1.20;;;;;;;13.75;69.90;101227.63;4904186;28;97264;-52